Portada
METAR-TAF:

METAR-TAF

Aeroports :

Karachi, Pakistan

latitud: 24-54N, longitud: 067-08E, altitud: 21 m

Observació

L'informe es va fer fa 25 minuts, a les 13:25 UTC
Vent 13 kt del Oest
Temperatura 39°C
Humitat 10%
Pressió 1003 hPa
Visibilitat: 5000 m
Pols estès

METAR: OPKC 201325Z 27013KT 5000 DU NSC 39/02 Q1003 NOSIG

Hora: 18:50 (13:50 UTC)

Pronòstic

L'informe es va fer fa 3 hores i 50 minuts, a les 10:00 UTC
Pronòstic vàlid del 20 a les 12 UTC al 21 a les 18 UTC
Vent 5 kt del Oest amb ràfegues de 15 kt
Visibilitat: 5000 m
calitja
A partir de les UTC
Vent 13 kt del Nord
Visibilitat: 4000 m
calitja
A partir de les UTC
Vent 5 kt del Oest amb ràfegues de 15 kt
Visibilitat: 6000 m

TAF: OPKC 201000Z 2012/2118 28005G15KT 5000 HZ NSC FM 022000 36013KT 4000 HZ NSC FM 210800 26005G15KT 6000 NSC

Observacions i pronòstics meteorològics de més de 4000 aeroports (METAR i TAF).

Les estacions disponibles són els punts grocs i vermells al mapa.

Posi el ratolí al punt desitjat per veure el nom de l'estació.

Feu clic per veure les observacions i els pronòstics meteorològics.

Per canviar el mapa: feu clic els botons verds amb una creu de color negre per apropar; al botó verd amb un guió per allunyar la imatge; o en les fletxes verdes per a mapes adjacents.


METAR-TAF: